createdAt,value
2023-11-07T00:02:23.963Z,98605.75
2023-11-07T00:04:50.224Z,98604.59
2023-11-07T00:07:16.440Z,98620.97
2023-11-07T00:09:42.673Z,98618.31
2023-11-07T00:12:08.835Z,98616.56
2023-11-07T00:14:36.102Z,98611.16
2023-11-07T00:17:02.299Z,98616.72
2023-11-07T00:19:29.533Z,98623.81
2023-11-07T00:21:57.799Z,98626.44
2023-11-07T00:24:24.105Z,98638.56
2023-11-07T00:26:50.329Z,98625.47
2023-11-07T00:29:17.774Z,98624.63
2023-11-07T00:31:44.220Z,98630.53
2023-11-07T00:34:10.595Z,98633.47
2023-11-07T00:36:36.926Z,98628.56
2023-11-07T00:39:03.247Z,98629.72
2023-11-07T00:41:29.531Z,98632.00
2023-11-07T00:43:55.883Z,98630.81
2023-11-07T00:46:25.267Z,98637.38
2023-11-07T00:48:51.644Z,98629.03
2023-11-07T00:51:18.090Z,98634.25
2023-11-07T00:53:44.304Z,98635.09
2023-11-07T00:56:10.473Z,98647.69
2023-11-07T00:58:36.715Z,98646.72
2023-11-07T01:01:03.719Z,98648.03
2023-11-07T01:03:30.113Z,98650.28
2023-11-07T01:05:57.492Z,98646.34
2023-11-07T01:08:23.701Z,98642.75
2023-11-07T01:10:49.974Z,98660.75
2023-11-07T01:13:16.384Z,98646.50
2023-11-07T01:15:42.567Z,98649.78
2023-11-07T01:18:08.867Z,98656.59
2023-11-07T01:20:35.247Z,98653.34
2023-11-07T01:23:01.461Z,98655.94
2023-11-07T01:25:27.813Z,98658.06
2023-11-07T01:27:54.021Z,98662.97
2023-11-07T01:30:20.309Z,98669.69
2023-11-07T01:32:46.659Z,98669.53
2023-11-07T01:35:14.022Z,98671.53
2023-11-07T01:37:40.176Z,98673.81
2023-11-07T01:40:06.375Z,98679.25
2023-11-07T01:42:32.642Z,98675.66
2023-11-07T01:44:58.931Z,98678.13
2023-11-07T01:47:25.165Z,98672.97
2023-11-07T01:49:51.446Z,98682.81
2023-11-07T01:52:17.732Z,98669.09
2023-11-07T01:54:43.967Z,98676.97
2023-11-07T01:57:10.190Z,98668.13
2023-11-07T01:59:36.361Z,98672.16
2023-11-07T02:02:02.575Z,98680.91
2023-11-07T02:04:28.899Z,98670.91
2023-11-07T02:06:56.312Z,98671.00
2023-11-07T02:09:22.554Z,98678.22
2023-11-07T02:11:48.757Z,98678.84
2023-11-07T02:14:14.981Z,98678.56
2023-11-07T02:16:41.289Z,98683.81
2023-11-07T02:19:07.616Z,98679.38
2023-11-07T02:21:33.961Z,98670.84
2023-11-07T02:24:02.421Z,98673.16
2023-11-07T02:26:28.610Z,98674.03
2023-11-07T02:28:55.725Z,98680.75
2023-11-07T02:31:22.120Z,98673.19
2023-11-07T02:33:48.537Z,98669.13
2023-11-07T02:36:14.856Z,98663.38
2023-11-07T02:38:41.730Z,98660.81
2023-11-07T02:41:08.072Z,98659.03
2023-11-07T02:43:34.336Z,98662.81
2023-11-07T02:46:00.551Z,98668.38
2023-11-07T02:48:27.761Z,98663.78
2023-11-07T02:50:55.150Z,98666.09
2023-11-07T02:53:21.396Z,98657.56
2023-11-07T02:55:47.590Z,98665.91
2023-11-07T02:58:14.064Z,98661.81
2023-11-07T03:00:40.509Z,98655.75
2023-11-07T03:03:06.789Z,98660.22
2023-11-07T03:05:36.043Z,98663.94
2023-11-07T03:08:02.325Z,98664.63
2023-11-07T03:10:28.489Z,98669.69
2023-11-07T03:12:56.886Z,98671.97
2023-11-07T03:15:23.220Z,98674.75
2023-11-07T03:17:49.496Z,98676.41
2023-11-07T03:20:15.929Z,98671.31
2023-11-07T03:22:42.172Z,98677.06
2023-11-07T03:25:09.540Z,98673.94
2023-11-07T03:27:35.776Z,98675.44
2023-11-07T03:30:02.081Z,98672.78
2023-11-07T03:32:28.332Z,98674.94
2023-11-07T03:34:54.589Z,98672.31
2023-11-07T03:37:20.978Z,98673.94
2023-11-07T03:39:47.170Z,98667.09
2023-11-07T03:42:13.398Z,98679.53
2023-11-07T03:44:39.680Z,98670.50
2023-11-07T03:47:06.195Z,98671.31
2023-11-07T03:49:32.699Z,98666.72
2023-11-07T03:52:00.977Z,98670.63
2023-11-07T03:54:27.141Z,98664.03
2023-11-07T03:56:53.444Z,98668.84
2023-11-07T03:59:19.710Z,98662.94
2023-11-07T04:01:50.903Z,98671.63
2023-11-07T04:04:17.117Z,98672.47
2023-11-07T04:06:44.484Z,98660.81
2023-11-07T04:09:10.804Z,98670.97
2023-11-07T04:11:37.040Z,98674.56
2023-11-07T04:14:03.268Z,98677.53
2023-11-07T04:16:30.266Z,98681.66
2023-11-07T04:18:56.752Z,98680.16
2023-11-07T04:21:27.493Z,98686.41
2023-11-07T04:23:53.784Z,98680.34
2023-11-07T04:26:20.328Z,98684.25
2023-11-07T04:28:48.609Z,98690.66
2023-11-07T04:31:14.802Z,98688.34
2023-11-07T04:33:41.068Z,98690.13
2023-11-07T04:36:10.214Z,98690.97
2023-11-07T04:38:36.462Z,98689.97
2023-11-07T04:41:02.692Z,98691.44
2023-11-07T04:43:28.907Z,98688.50
2023-11-07T04:45:55.152Z,98689.47
2023-11-07T04:48:21.519Z,98680.31
2023-11-07T04:50:48.045Z,98693.09
2023-11-07T04:53:14.289Z,98680.94
2023-11-07T04:55:40.484Z,98689.81
2023-11-07T04:58:06.686Z,98689.28
2023-11-07T05:00:32.856Z,98684.72
2023-11-07T05:02:59.315Z,98683.75
2023-11-07T05:05:25.630Z,98694.69
2023-11-07T05:07:54.278Z,98688.31
2023-11-07T05:10:20.476Z,98693.53
2023-11-07T05:12:47.045Z,98695.38
2023-11-07T05:15:13.327Z,98703.06
2023-11-07T05:17:39.777Z,98701.25
2023-11-07T05:20:06.029Z,98687.31
2023-11-07T05:22:34.602Z,98696.16
2023-11-07T05:25:01.620Z,98697.81
2023-11-07T05:27:28.533Z,98696.00
2023-11-07T05:29:57.247Z,98701.25
2023-11-07T05:32:23.469Z,98702.91
2023-11-07T05:34:49.937Z,98710.28
2023-11-07T05:37:18.562Z,98702.09
2023-11-07T05:39:44.786Z,98709.63
2023-11-07T05:42:11.089Z,98707.66
2023-11-07T05:47:27.245Z,98708.50
2023-11-07T05:49:54.218Z,98710.13
2023-11-07T05:52:20.547Z,98714.06
2023-11-07T05:54:46.749Z,98712.47
2023-11-07T05:57:12.999Z,98719.50
2023-11-07T05:59:39.216Z,98715.88
2023-11-07T06:02:05.532Z,98715.72
2023-11-07T06:04:31.799Z,98712.28
2023-11-07T06:07:01.963Z,98708.22
2023-11-07T06:09:28.264Z,98719.50
2023-11-07T06:11:54.477Z,98714.75
2023-11-07T06:14:20.746Z,98715.25
2023-11-07T06:16:46.979Z,98726.19
2023-11-07T06:19:13.267Z,98723.75
2023-11-07T06:21:40.548Z,98720.31
2023-11-07T06:24:06.808Z,98725.38
2023-11-07T06:26:33.553Z,98721.13
2023-11-07T06:28:59.772Z,98718.19
2023-11-07T06:31:27.549Z,98714.75
2023-11-07T06:33:54.040Z,98721.63
2023-11-07T06:36:21.501Z,98722.63
2023-11-07T06:38:47.736Z,98719.34
2023-11-07T06:41:18.790Z,98719.66
2023-11-07T06:43:49.234Z,98721.13
2023-11-07T06:46:15.456Z,98722.91
2023-11-07T06:48:41.889Z,98724.06
2023-11-07T06:51:08.200Z,98725.38
2023-11-07T06:53:35.486Z,98724.88
2023-11-07T06:56:01.792Z,98722.09
2023-11-07T06:58:28.003Z,98727.66
2023-11-07T07:03:44.234Z,98728.63
2023-11-07T07:06:10.581Z,98735.00
2023-11-07T07:08:36.847Z,98736.97
2023-11-07T07:11:05.257Z,98737.28
2023-11-07T07:13:31.695Z,98739.13
2023-11-07T07:15:57.912Z,98738.47
2023-11-07T07:18:29.496Z,98739.75
2023-11-07T07:20:55.844Z,98738.44
2023-11-07T07:23:22.104Z,98749.78
2023-11-07T07:25:48.438Z,98752.34
2023-11-07T07:28:14.664Z,98746.81
2023-11-07T07:30:40.894Z,98754.16
2023-11-07T07:33:07.236Z,98756.63
2023-11-07T07:35:33.499Z,98762.53
2023-11-07T07:38:00.849Z,98767.94
2023-11-07T07:40:28.076Z,98759.59
2023-11-07T07:42:54.503Z,98764.47
2023-11-07T07:45:21.915Z,98764.47
2023-11-07T07:47:50.190Z,98762.06
2023-11-07T07:50:16.550Z,98762.56
2023-11-07T07:52:42.760Z,98763.53
2023-11-07T07:55:23.464Z,98765.47
2023-11-07T07:57:54.836Z,98758.63
2023-11-07T08:00:21.217Z,98765.31
2023-11-07T08:02:47.758Z,98769.06
2023-11-07T08:05:14.153Z,98767.94
2023-11-07T08:07:40.361Z,98767.63
2023-11-07T08:10:11.572Z,98768.44
2023-11-07T08:12:37.805Z,98767.28
2023-11-07T08:15:04.344Z,98774.69
2023-11-07T08:17:30.601Z,98776.31
2023-11-07T08:19:56.847Z,98775.81
2023-11-07T08:22:23.095Z,98765.03
2023-11-07T08:24:49.357Z,98772.56
2023-11-07T08:27:16.327Z,98774.50
2023-11-07T08:29:43.431Z,98773.38
2023-11-07T08:32:09.714Z,98783.72
2023-11-07T08:34:36.024Z,98795.81
2023-11-07T08:37:08.902Z,98786.50
2023-11-07T08:39:37.978Z,98777.47
2023-11-07T08:42:05.356Z,98782.88
2023-11-07T08:44:31.556Z,98785.34
2023-11-07T08:46:58.536Z,98789.59
2023-11-07T08:49:24.913Z,98780.75
2023-11-07T08:51:51.129Z,98796.66
2023-11-07T08:54:17.516Z,98797.47
2023-11-07T08:56:43.872Z,98789.75
2023-11-07T08:59:10.112Z,98796.16
2023-11-07T09:01:36.379Z,98794.16
2023-11-07T09:04:05.541Z,98801.84
2023-11-07T09:06:31.926Z,98792.16
2023-11-07T09:09:02.415Z,98807.56
2023-11-07T09:11:28.656Z,98795.91
2023-11-07T09:13:54.919Z,98814.06
2023-11-07T09:16:23.425Z,98805.19
2023-11-07T09:18:49.702Z,98802.25
2023-11-07T09:21:16.385Z,98808.91
2023-11-07T09:23:42.704Z,98806.19
2023-11-07T09:26:08.957Z,98818.19
2023-11-07T09:28:35.181Z,98816.19
2023-11-07T09:31:01.489Z,98824.38
2023-11-07T09:33:29.802Z,98823.03
2023-11-07T09:35:56.114Z,98822.31
2023-11-07T09:38:22.428Z,98828.72
2023-11-07T09:40:48.717Z,98826.91
2023-11-07T09:43:15.023Z,98821.81
2023-11-07T09:45:41.422Z,98815.22
2023-11-07T09:48:08.489Z,98814.84
2023-11-07T09:50:35.059Z,98823.69
2023-11-07T09:53:05.879Z,98820.09
2023-11-07T09:55:33.429Z,98831.09
2023-11-07T10:03:41.578Z,98844.00
2023-11-07T10:06:14.908Z,98834.44
2023-11-07T10:08:41.340Z,98830.94
2023-11-07T10:11:09.616Z,98833.97
2023-11-07T10:13:37.084Z,98835.31
2023-11-07T10:16:16.147Z,98831.28
2023-11-07T10:18:45.289Z,98832.09
2023-11-07T10:21:17.767Z,98832.00
2023-11-07T10:23:46.519Z,98834.22
2023-11-07T10:26:16.456Z,98838.31
2023-11-07T10:28:42.809Z,98854.38
2023-11-07T10:31:13.433Z,98847.94
2023-11-07T10:33:42.271Z,98850.72
2023-11-07T10:36:08.910Z,98857.34
2023-11-07T10:38:37.621Z,98861.91
2023-11-07T10:41:04.453Z,98860.78
2023-11-07T10:43:30.634Z,98855.50
2023-11-07T10:45:57.980Z,98855.38
2023-11-07T10:48:28.494Z,98847.25
2023-11-07T10:50:54.803Z,98859.34
2023-11-07T10:53:20.995Z,98854.75
2023-11-07T10:55:47.593Z,98853.13
2023-11-07T10:58:13.899Z,98861.00
2023-11-07T11:00:40.146Z,98852.94
2023-11-07T11:03:06.764Z,98853.59
2023-11-07T11:05:33.039Z,98854.09
2023-11-07T11:08:10.863Z,98851.06
2023-11-07T11:10:37.106Z,98857.97
2023-11-07T11:13:03.302Z,98847.59
2023-11-07T11:15:29.599Z,98852.44
2023-11-07T11:17:56.148Z,98849.91
2023-11-07T11:20:30.388Z,98851.69
2023-11-07T11:22:56.564Z,98843.56
2023-11-07T11:25:25.259Z,98839.47
2023-11-07T11:27:51.686Z,98849.81
2023-11-07T11:30:20.078Z,98838.16
2023-11-07T11:32:46.593Z,98841.00
2023-11-07T11:35:12.843Z,98836.97
2023-11-07T11:37:40.526Z,98842.09
2023-11-07T11:40:10.994Z,98845.72
2023-11-07T11:42:39.646Z,98843.06
2023-11-07T11:45:07.317Z,98837.81
2023-11-07T11:47:33.774Z,98836.38
2023-11-07T11:50:00.182Z,98828.22
2023-11-07T11:52:32.595Z,98824.38
2023-11-07T11:54:59.232Z,98827.25
2023-11-07T11:57:26.618Z,98822.97
2023-11-07T11:59:55.834Z,98814.59
2023-11-07T12:02:24.241Z,98812.75
2023-11-07T12:04:50.437Z,98822.25
2023-11-07T12:07:17.168Z,98822.84
2023-11-07T12:09:43.558Z,98827.34
2023-11-07T12:12:12.866Z,98825.81
2023-11-07T12:14:39.168Z,98825.84
2023-11-07T12:17:05.374Z,98817.06
2023-11-07T12:19:32.192Z,98819.00
2023-11-07T12:30:32.364Z,98817.81
2023-11-07T12:33:01.411Z,98820.31
2023-11-07T12:35:27.966Z,98816.19
2023-11-07T12:37:56.123Z,98820.66
2023-11-07T12:40:22.701Z,98810.88
2023-11-07T12:42:50.973Z,98817.00
2023-11-07T12:45:22.007Z,98810.50
2023-11-07T12:47:55.198Z,98810.63
2023-11-07T12:50:24.473Z,98812.91
2023-11-07T12:52:54.858Z,98810.78
2023-11-07T12:55:25.431Z,98809.84
2023-11-07T12:57:51.679Z,98842.00
2023-11-07T13:06:07.900Z,98831.66
2023-11-07T13:11:24.938Z,98827.63
2023-11-07T13:11:32.920Z,98838.25
2023-11-07T13:13:56.288Z,98828.66
2023-11-07T13:16:28.362Z,98790.81
2023-11-07T13:19:04.078Z,98819.50
2023-11-07T13:21:41.478Z,98820.69
2023-11-07T13:25:07.856Z,98818.03
2023-11-07T13:27:03.197Z,98813.81
2023-11-07T13:29:29.701Z,98818.03
2023-11-07T13:31:56.017Z,98814.84
2023-11-07T13:34:34.587Z,98829.44
2023-11-07T13:37:08.274Z,98826.72
2023-11-07T13:40:01.519Z,98832.31
2023-11-07T13:42:43.286Z,98830.69
2023-11-07T13:47:54.408Z,98830.25
2023-11-07T13:50:22.739Z,98831.66
2023-11-07T13:52:54.978Z,98834.63
2023-11-07T13:55:21.255Z,98823.72
2023-11-07T13:57:47.560Z,98831.44
2023-11-07T14:00:15.315Z,98837.16
2023-11-07T14:02:41.675Z,98845.38
2023-11-07T14:05:08.028Z,98820.91
2023-11-07T14:07:44.847Z,98835.38
2023-11-07T14:10:11.215Z,98834.63
2023-11-07T14:12:37.558Z,98833.75
2023-11-07T14:15:03.765Z,98839.47
2023-11-07T14:17:29.973Z,98835.25
2023-11-07T14:19:56.466Z,98841.28
2023-11-07T14:22:22.765Z,98835.88
2023-11-07T14:24:48.937Z,98840.97
2023-11-07T14:27:15.144Z,98854.63
2023-11-07T14:29:55.659Z,98845.72
2023-11-07T14:32:27.434Z,98849.22
2023-11-07T14:34:53.615Z,98861.03
2023-11-07T14:37:19.932Z,98856.94
2023-11-07T14:39:46.280Z,98850.38
2023-11-07T14:42:14.450Z,98852.06
2023-11-07T14:44:40.699Z,98870.28
2023-11-07T14:47:06.953Z,98868.00
2023-11-07T14:49:33.225Z,98884.91
2023-11-07T14:52:01.797Z,98885.56
2023-11-07T14:54:28.163Z,98887.03
2023-11-07T14:57:01.048Z,98890.66
2023-11-07T14:59:33.360Z,98885.44
2023-11-07T15:01:59.653Z,98882.00
2023-11-07T15:04:26.064Z,98886.38
2023-11-07T15:06:54.650Z,98890.19
2023-11-07T15:09:20.988Z,98882.00
2023-11-07T15:11:47.233Z,98887.09
2023-11-07T15:14:13.525Z,98896.63
2023-11-07T15:16:39.717Z,98894.47
2023-11-07T15:19:06.326Z,98891.53
2023-11-07T15:21:34.860Z,98901.06
2023-11-07T15:24:01.490Z,98888.59
2023-11-07T15:26:27.794Z,98887.00
2023-11-07T15:28:54.254Z,98893.19
2023-11-07T15:31:21.287Z,98891.56
2023-11-07T15:33:47.588Z,98887.81
2023-11-07T15:36:13.956Z,98897.66
2023-11-07T15:38:42.944Z,98890.09
2023-11-07T15:41:11.032Z,98886.66
2023-11-07T15:43:37.230Z,98892.38
2023-11-07T15:46:03.518Z,98891.56
2023-11-07T15:48:31.079Z,98897.13
2023-11-07T15:50:57.579Z,98901.06
2023-11-07T15:53:24.534Z,98895.81
2023-11-07T15:55:53.008Z,98896.66
2023-11-07T15:58:19.224Z,98902.06
2023-11-07T16:00:45.426Z,98910.41
2023-11-07T16:03:17.151Z,98903.53
2023-11-07T16:05:44.832Z,98903.38
2023-11-07T16:08:15.433Z,98902.38
2023-11-07T16:10:41.851Z,98912.41
2023-11-07T16:13:08.128Z,98907.47
2023-11-07T16:15:44.903Z,98904.88
2023-11-07T16:18:11.267Z,98914.03
2023-11-07T16:23:21.286Z,98911.72
2023-11-07T16:25:47.499Z,98912.56
2023-11-07T16:28:13.827Z,98924.69
2023-11-07T16:30:40.236Z,98918.78
2023-11-07T16:33:06.646Z,98926.94
2023-11-07T16:35:34.018Z,98925.94
2023-11-07T16:38:03.030Z,98928.25
2023-11-07T16:40:29.382Z,98934.28
2023-11-07T16:42:55.716Z,98934.78
2023-11-07T16:45:22.194Z,98943.47
2023-11-07T16:47:48.632Z,98938.22
2023-11-07T16:50:14.936Z,98941.81
2023-11-07T16:52:42.326Z,98935.13
2023-11-07T16:55:08.711Z,98940.69
2023-11-07T16:57:35.011Z,98934.47
2023-11-07T17:00:02.862Z,98941.00
2023-11-07T17:02:31.380Z,98936.41
2023-11-07T17:04:58.720Z,98940.81
2023-11-07T17:07:26.553Z,98929.84
2023-11-07T17:09:53.058Z,98934.44
2023-11-07T17:12:40.638Z,98933.28
2023-11-07T17:15:11.608Z,98933.94
2023-11-07T17:17:39.191Z,98937.91
2023-11-07T17:20:05.408Z,98933.47
2023-11-07T17:22:32.648Z,98932.47
2023-11-07T17:24:58.978Z,98938.72
2023-11-07T17:27:25.321Z,98933.97
2023-11-07T17:29:51.595Z,98935.88
2023-11-07T17:32:18.944Z,98939.63
2023-11-07T17:34:45.105Z,98942.97
2023-11-07T17:40:04.572Z,98941.50
2023-11-07T17:42:33.128Z,98936.91
2023-11-07T17:44:59.390Z,98933.97
2023-11-07T17:47:29.601Z,98935.94
2023-11-07T17:49:56.051Z,98944.09
2023-11-07T17:52:23.280Z,98948.16
2023-11-07T17:54:49.442Z,98947.41
2023-11-07T17:57:18.884Z,98957.22
2023-11-07T17:59:45.233Z,98953.78
2023-11-07T18:02:12.702Z,98953.09
2023-11-07T18:04:38.937Z,98954.88
2023-11-07T18:09:55.627Z,98959.28
2023-11-07T18:12:22.005Z,98946.63
2023-11-07T18:14:48.329Z,98950.06
2023-11-07T18:17:14.795Z,98961.56
2023-11-07T18:19:42.331Z,98957.84
2023-11-07T18:22:09.048Z,98958.16
2023-11-07T18:24:35.341Z,98958.81
2023-11-07T18:27:21.722Z,98964.22
2023-11-07T18:30:08.207Z,98955.88
2023-11-07T18:32:38.416Z,98961.78
2023-11-07T18:40:51.562Z,98971.44
2023-11-07T18:51:29.281Z,98954.34
2023-11-07T18:53:55.425Z,98963.03
2023-11-07T18:56:21.572Z,98967.22
2023-11-07T18:58:47.751Z,98955.31
2023-11-07T19:01:14.571Z,98953.44
2023-11-07T19:03:47.101Z,98962.44
2023-11-07T19:06:14.882Z,98960.06
2023-11-07T19:08:41.376Z,98964.94
2023-11-07T19:11:07.675Z,98962.97
2023-11-07T19:13:34.068Z,98961.84
2023-11-07T19:16:07.896Z,98956.16
2023-11-07T19:18:35.182Z,98956.88
2023-11-07T19:21:05.705Z,98954.78
2023-11-07T19:23:31.982Z,98957.97
2023-11-07T19:25:59.333Z,98956.16
2023-11-07T19:28:25.569Z,98959.63
2023-11-07T19:30:52.813Z,98958.47
2023-11-07T19:33:20.404Z,98956.00
2023-11-07T19:35:46.672Z,98961.69
2023-11-07T19:38:12.924Z,98958.59
2023-11-07T19:40:41.573Z,98955.84
2023-11-07T19:43:08.576Z,98961.91
2023-11-07T19:45:38.697Z,98965.53
2023-11-07T19:48:05.127Z,98968.47
2023-11-07T19:50:31.494Z,98966.16
2023-11-07T19:53:06.498Z,98968.19
2023-11-07T19:55:37.761Z,98975.59
2023-11-07T19:58:04.034Z,98968.38
2023-11-07T20:00:30.467Z,98964.13
2023-11-07T20:02:56.768Z,98968.38
2023-11-07T20:05:25.779Z,98969.72
2023-11-07T20:07:56.304Z,98974.34
2023-11-07T20:10:25.695Z,98960.13
2023-11-07T20:12:52.173Z,98977.75
2023-11-07T20:15:18.552Z,98976.31
2023-11-07T20:17:46.891Z,98981.47
2023-11-07T20:20:14.256Z,98976.41
2023-11-07T20:22:40.452Z,98965.09
2023-11-07T20:25:07.037Z,98982.50
2023-11-07T20:27:33.379Z,98973.25
2023-11-07T20:29:59.692Z,98985.66
2023-11-07T20:32:25.879Z,98974.34
2023-11-07T20:34:52.255Z,98982.38
2023-11-07T20:37:19.638Z,98984.63
2023-11-07T20:39:45.903Z,98981.66
2023-11-07T20:42:12.188Z,98986.28
2023-11-07T20:44:44.551Z,98974.22
2023-11-07T20:47:11.573Z,98962.38
2023-11-07T20:49:40.022Z,98976.03
2023-11-07T20:52:15.169Z,98990.06
2023-11-07T20:54:48.953Z,98981.28
2023-11-07T20:57:18.330Z,98979.19
2023-11-07T20:59:44.628Z,98981.94
2023-11-07T21:02:10.822Z,98979.50
2023-11-07T21:04:37.050Z,98971.38
2023-11-07T21:07:05.706Z,98977.03
2023-11-07T21:09:31.932Z,98980.53
2023-11-07T21:12:07.040Z,98989.91
2023-11-07T21:14:33.328Z,98998.56
2023-11-07T21:16:59.492Z,98992.78
2023-11-07T21:19:28.456Z,98996.59
2023-11-07T21:24:22.818Z,98998.16
2023-11-07T21:26:49.177Z,99004.84
2023-11-07T21:29:21.495Z,98993.91
2023-11-07T21:31:47.755Z,98997.66
2023-11-07T21:34:14.017Z,99005.03
2023-11-07T21:36:43.428Z,99000.16
2023-11-07T21:39:10.548Z,98998.16
2023-11-07T21:41:38.986Z,98982.59
2023-11-07T21:44:05.163Z,98985.69
2023-11-07T21:46:34.149Z,98991.56
2023-11-07T21:49:00.350Z,98982.28
2023-11-07T21:51:26.918Z,98983.88
2023-11-07T21:53:54.508Z,98993.16
2023-11-07T21:56:20.681Z,98983.16
2023-11-07T21:58:46.862Z,98970.72
2023-11-07T22:01:15.859Z,98985.28
2023-11-07T22:03:42.821Z,98980.22
2023-11-07T22:06:09.173Z,98980.22
2023-11-07T22:08:35.353Z,98974.34
2023-11-07T22:11:02.345Z,98989.69
2023-11-07T22:13:28.662Z,98993.72
2023-11-07T22:15:55.162Z,98987.44
2023-11-07T22:18:21.403Z,98988.56
2023-11-07T22:20:49.651Z,98968.69
2023-11-07T22:23:18.414Z,98979.09
2023-11-07T22:25:44.648Z,98984.81
2023-11-07T22:28:11.096Z,98988.25
2023-11-07T22:30:37.370Z,98982.69
2023-11-07T22:33:03.846Z,98990.56
2023-11-07T22:38:14.188Z,98985.69
2023-11-07T22:40:40.344Z,98989.44
2023-11-07T22:43:06.737Z,98986.00
2023-11-07T22:45:33.042Z,98992.72
2023-11-07T22:47:59.459Z,98981.41
2023-11-07T22:50:25.774Z,98985.50
2023-11-07T22:52:51.931Z,98987.97
2023-11-07T22:55:18.234Z,98984.88
2023-11-07T22:57:44.453Z,98997.16
2023-11-07T23:00:10.754Z,98996.34
2023-11-07T23:02:37.025Z,98983.59
2023-11-07T23:05:03.607Z,98991.47
2023-11-07T23:07:29.913Z,98999.34
2023-11-07T23:09:56.110Z,99008.00
2023-11-07T23:12:22.303Z,99005.03
2023-11-07T23:14:48.481Z,99010.78
2023-11-07T23:17:14.967Z,99002.94
2023-11-07T23:19:41.261Z,99004.78
2023-11-07T23:22:07.516Z,99005.09
2023-11-07T23:24:33.728Z,99003.63
2023-11-07T23:26:59.967Z,99009.34
2023-11-07T23:29:28.625Z,99015.28
2023-11-07T23:31:54.833Z,99007.59
2023-11-07T23:34:21.133Z,99009.88
2023-11-07T23:36:47.524Z,99014.31
2023-11-07T23:39:13.797Z,99022.13
2023-11-07T23:41:40.418Z,99017.03
2023-11-07T23:44:09.133Z,99016.09
2023-11-07T23:46:37.162Z,99015.44
2023-11-07T23:49:04.822Z,99005.91
2023-11-07T23:51:33.370Z,99008.09
2023-11-07T23:53:59.554Z,99020.09
2023-11-07T23:56:25.976Z,99011.28
2023-11-07T23:58:52.392Z,99011.00
